This is the latest recevied weather packets stored in our database for station/object F6JSP-13. If no packets are shown the sender has not sent any weather packets the latest 10 day(s).
| Time | Temp. | Humidity | Pressure | Rain* | Wind** | Luminosity | Snow |
|---|---|---|---|---|---|---|---|
| 1778232304 | 18.33° C | 62% | 1011.1 hPa | 0 mm | - | 631 W/m² | - |
| 1778226005 | 15.56° C | 72% | 1011.3 hPa | 0 mm | - | 350 W/m² | - |
| 1778225405 | 15.56° C | 73% | 1011.2 hPa | 0 mm | - | 313 W/m² | - |
| 1778223904 | 14.44° C | 76% | 1011 hPa | 0 mm | - | 276 W/m² | - |
| 1778223305 | 13.89° C | 78% | 1011.1 hPa | 0 mm | - | 246 W/m² | - |
| 1778223004 | 13.89° C | 78% | 1011.1 hPa | 0 mm | - | 239 W/m² | - |
| 1778221805 | 12.78° C | 81% | 1011 hPa | 0 mm | - | 168 W/m² | - |
| 1778221505 | 12.78° C | 81% | 1010.9 hPa | 0 mm | - | 157 W/m² | - |
| 1778220004 | 11.67° C | 84% | 1011.2 hPa | 0 mm | - | 97 W/m² | - |
| 1778218805 | 11.11° C | 88% | 1010.8 hPa | 0 mm | - | 55 W/m² | - |
| 1778218204 | 10.56° C | 90% | 1010.7 hPa | 0 mm | - | 38 W/m² | - |
| 1778216405 | 9.44° C | 92% | 1010.7 hPa | 0 mm | - | 15 W/m² | - |
| 1778216104 | 9.44° C | 92% | 1010.5 hPa | 0 mm | - | 10 W/m² | - |
| 1778215505 | 9.44° C | 92% | 1010.5 hPa | 0 mm | - | 5 W/m² | - |
| 1778213405 | 10° C | 91% | 1010.6 hPa | 0 mm | - | 0 W/m² | - |
| 1778213105 | 10° C | 90% | 1010.7 hPa | 0 mm | - | 0 W/m² | - |
| 1778211305 | 10.56° C | 88% | 1010.8 hPa | 0 mm | - | 0 W/m² | - |
| 1778208605 | 11.11° C | 86% | 1010.8 hPa | 0 mm | - | 0 W/m² | - |
| 1778207105 | 11.11° C | 86% | 1010.8 hPa | 0 mm | - | 0 W/m² | - |
| 1778206205 | 11.67° C | 84% | 1011 hPa | 0 mm | - | 0 W/m² | - |
| 1778205305 | 11.67° C | 84% | 1010.9 hPa | 0 mm | - | 0 W/m² | - |
| 1778204405 | 11.67° C | 84% | 1010.9 hPa | 0 mm | - | 0 W/m² | - |
| 1778204105 | 11.67° C | 85% | 1010.9 hPa | 0 mm | - | 0 W/m² | - |
| 1778202004 | 11.67° C | 85% | 1010.8 hPa | 0 mm | - | 0 W/m² | - |
| 1778201405 | 11.67° C | 85% | 1010.8 hPa | 0 mm | - | 0 W/m² | - |
* Rain latest hour (hover to see other rain measurements)
** Current wind speed in m/s (hover to see current wind gust speed)